Weather at Campbeltown Airport

Public forecast

Using degrees Celsius for public forecast. Weather courtesy of forecast.io.

Current aviation weather report (METAR) for Campbeltown Airport

Retrieved 2022/06/29 08:20 UTC (30 minutes ago):

EGEC 290820Z 14007KT 9999 SCT008 13/12 Q1005

Closest aviation forecast (TAF) to Campbeltown Airport

Closest forecast is Glasgow Prestwick Airport, 37.6 nm (69.7 km) E. Retrieved 2022/06/29 06:00 UTC (3 hours ago):

TAF EGPK 290457Z 2906/3006 12009KT 9999 FEW020 SCT040 TEMPO 2906/2919 6000 SHRA PROB30 TEMPO 2909/2914 4000 +SHRA BKN014 BECMG 2910/2913 24010KT BECMG 2921/2924 VRB03KT PROB30 TEMPO 3000/3006 7000 SHRA BKN014